createdAt,value
2022-12-01T00:02:59.265Z,19.33
2022-12-01T00:06:01.618Z,21.05
2022-12-01T00:09:21.635Z,19.65
2022-12-01T00:12:22.549Z,21.50
2022-12-01T00:15:28.363Z,20.27
2022-12-01T00:18:29.194Z,20.60
2022-12-01T00:21:30.178Z,21.30
2022-12-01T00:24:31.681Z,20.98
2022-12-01T00:27:32.442Z,18.70
2022-12-01T00:30:33.291Z,21.60
2022-12-01T00:33:34.571Z,21.25
2022-12-01T00:36:35.772Z,20.20
2022-12-01T00:39:36.826Z,19.00
2022-12-01T00:42:38.293Z,20.52
2022-12-01T00:45:39.499Z,19.52
2022-12-01T00:48:40.639Z,21.17
2022-12-01T00:51:41.654Z,21.77
2022-12-01T00:54:43.219Z,20.92
2022-12-01T00:57:44.273Z,22.02
2022-12-01T01:00:45.454Z,22.17
2022-12-01T01:03:46.145Z,22.20
2022-12-01T01:06:47.011Z,21.73
2022-12-01T01:09:48.073Z,21.42
2022-12-01T01:12:49.362Z,22.60
2022-12-01T01:16:13.652Z,21.33
2022-12-01T01:19:14.737Z,20.60
2022-12-01T01:22:15.646Z,21.30
2022-12-01T01:25:16.471Z,22.27
2022-12-01T01:28:17.831Z,20.65
2022-12-01T01:31:23.103Z,21.35
2022-12-01T01:34:24.501Z,20.95
2022-12-01T01:37:25.486Z,20.55
2022-12-01T01:40:26.199Z,20.80
2022-12-01T01:43:43.979Z,20.48
2022-12-01T01:46:44.911Z,20.50
2022-12-01T01:49:46.533Z,19.52
2022-12-01T01:53:07.581Z,21.58
2022-12-01T01:56:09.546Z,20.65
2022-12-01T01:59:15.161Z,19.10
2022-12-01T02:02:16.591Z,20.98
2022-12-01T02:05:30.548Z,19.08
2022-12-01T02:08:35.970Z,18.77
2022-12-01T02:11:48.781Z,21.80
2022-12-01T02:15:25.799Z,19.88
2022-12-01T02:19:13.229Z,18.73
2022-12-01T02:22:38.303Z,20.02
2022-12-01T02:25:54.543Z,17.92
2022-12-01T02:29:53.413Z,17.13
2022-12-01T02:33:19.049Z,17.80
2022-12-01T02:36:43.608Z,16.90
2022-12-01T02:40:08.482Z,16.80
2022-12-01T02:43:32.017Z,17.23
2022-12-01T02:46:51.083Z,17.55
2022-12-01T02:49:57.562Z,16.83
2022-12-01T02:53:01.351Z,17.90
2022-12-01T02:56:11.753Z,17.48
2022-12-01T02:59:15.282Z,18.98
2022-12-01T03:02:55.992Z,16.38
2022-12-01T03:06:14.666Z,17.90
2022-12-01T03:09:27.586Z,16.65
2022-12-01T03:13:09.266Z,15.65
2022-12-01T03:16:21.440Z,17.23
2022-12-01T03:19:48.800Z,16.05
2022-12-01T03:23:04.797Z,17.30
2022-12-01T03:26:11.298Z,16.17
2022-12-01T03:29:20.475Z,15.33
2022-12-01T03:32:39.790Z,17.17
2022-12-01T03:35:56.459Z,16.60
2022-12-01T03:39:05.002Z,15.17
2022-12-01T03:42:15.689Z,14.50
2022-12-01T03:45:26.896Z,16.70
2022-12-01T03:48:29.647Z,16.70
2022-12-01T03:51:58.628Z,16.52
2022-12-01T03:55:12.145Z,15.98
2022-12-01T03:58:21.520Z,15.63
2022-12-01T04:01:22.903Z,15.50
2022-12-01T04:04:23.983Z,15.18
2022-12-01T04:07:24.809Z,15.48
2022-12-01T04:10:26.102Z,15.70
2022-12-01T04:13:27.059Z,16.27
2022-12-01T04:16:28.106Z,15.13
2022-12-01T04:19:29.274Z,16.25
2022-12-01T04:22:30.106Z,14.68
2022-12-01T04:25:30.768Z,14.27
2022-12-01T04:28:31.877Z,14.40
2022-12-01T04:31:33.075Z,15.15
2022-12-01T04:34:34.290Z,14.48
2022-12-01T04:37:35.465Z,15.10
2022-12-01T04:40:39.242Z,16.27
2022-12-01T04:43:41.483Z,16.00
2022-12-01T04:46:42.293Z,16.13
2022-12-01T04:49:43.604Z,14.32
2022-12-01T04:52:44.846Z,16.30
2022-12-01T04:55:45.954Z,15.82
2022-12-01T04:58:47.451Z,15.60
2022-12-01T05:01:48.758Z,17.17
2022-12-01T05:04:49.871Z,20.52
2022-12-01T05:07:51.105Z,17.95
2022-12-01T05:10:56.737Z,19.02
2022-12-01T05:13:58.188Z,18.70
2022-12-01T05:17:00.587Z,17.80
2022-12-01T05:20:19.886Z,18.48
2022-12-01T05:23:20.507Z,17.38
2022-12-01T05:26:21.178Z,20.02
2022-12-01T05:29:21.988Z,20.10
2022-12-01T05:32:23.109Z,18.63
2022-12-01T05:35:24.258Z,22.23
2022-12-01T05:38:25.481Z,18.10
2022-12-01T05:41:26.778Z,17.83
2022-12-01T05:44:28.029Z,20.40
2022-12-01T05:47:29.231Z,20.58
2022-12-01T05:50:31.352Z,20.63
2022-12-01T05:53:32.154Z,20.70
2022-12-01T05:56:32.987Z,21.02
2022-12-01T05:59:33.657Z,20.48
2022-12-01T06:02:34.707Z,20.08
2022-12-01T06:05:35.841Z,20.80
2022-12-01T06:08:36.895Z,21.83
2022-12-01T06:11:38.136Z,21.38
2022-12-01T06:14:39.163Z,21.13
2022-12-01T06:17:41.049Z,21.27
2022-12-01T06:20:42.200Z,21.77
2022-12-01T06:23:43.952Z,22.02
2022-12-01T06:26:45.087Z,22.30
2022-12-01T06:29:45.847Z,22.17
2022-12-01T06:32:46.684Z,23.27
2022-12-01T06:35:47.886Z,22.13
2022-12-01T06:38:48.711Z,20.98
2022-12-01T06:41:49.954Z,22.27
2022-12-01T06:44:51.040Z,22.20
2022-12-01T06:47:55.403Z,22.50
2022-12-01T06:51:01.585Z,22.77
2022-12-01T06:54:05.651Z,21.02
2022-12-01T06:57:07.140Z,20.75
2022-12-01T07:00:09.522Z,23.33
2022-12-01T07:03:10.958Z,21.73
2022-12-01T07:06:11.716Z,21.52
2022-12-01T07:09:12.582Z,24.17
2022-12-01T07:12:13.284Z,23.40
2022-12-01T07:15:14.200Z,23.52
2022-12-01T07:18:15.286Z,23.00
2022-12-01T07:21:17.120Z,24.30
2022-12-01T07:24:18.412Z,23.67
2022-12-01T07:27:19.697Z,23.13
2022-12-01T07:30:25.400Z,22.90
2022-12-01T07:33:29.384Z,24.15
2022-12-01T07:36:30.577Z,23.38
2022-12-01T07:39:31.488Z,21.58
2022-12-01T07:42:32.760Z,22.65
2022-12-01T07:45:36.702Z,23.00
2022-12-01T07:48:40.034Z,23.70
2022-12-01T07:51:41.262Z,23.05
2022-12-01T07:54:42.558Z,24.25
2022-12-01T07:57:44.030Z,22.02
2022-12-01T08:00:45.234Z,22.15
2022-12-01T08:03:47.569Z,23.48
2022-12-01T08:06:48.455Z,22.67
2022-12-01T08:09:49.551Z,21.70
2022-12-01T08:12:50.521Z,20.77
2022-12-01T08:15:51.694Z,21.42
2022-12-01T08:18:53.392Z,21.90
2022-12-01T08:21:54.599Z,22.00
2022-12-01T08:24:55.238Z,21.98
2022-12-01T08:27:57.034Z,21.63
2022-12-01T08:30:58.777Z,22.65
2022-12-01T08:34:00.094Z,21.63
2022-12-01T08:37:00.846Z,21.58
2022-12-01T08:40:02.311Z,22.05
2022-12-01T08:43:03.347Z,20.70
2022-12-01T08:46:04.309Z,21.38
2022-12-01T08:49:06.880Z,20.77
2022-12-01T08:52:07.894Z,20.13
2022-12-01T08:55:09.643Z,21.58
2022-12-01T08:58:10.719Z,24.23
2022-12-01T09:01:16.353Z,22.75
2022-12-01T09:04:25.669Z,20.50
2022-12-01T09:07:27.252Z,22.98
2022-12-01T09:10:28.247Z,20.58
2022-12-01T09:13:29.818Z,21.08
2022-12-01T09:16:31.284Z,22.80
2022-12-01T09:19:32.746Z,22.33
2022-12-01T09:22:34.871Z,21.05
2022-12-01T09:25:35.800Z,20.23
2022-12-01T09:28:36.660Z,23.05
2022-12-01T09:31:38.229Z,20.33
